createdAt,value
2018-07-03T00:01:30.634Z,89.30
2018-07-03T00:04:03.992Z,90.00
2018-07-03T00:06:37.529Z,90.00
2018-07-03T00:09:12.761Z,90.00
2018-07-03T00:11:46.138Z,90.00
2018-07-03T00:14:19.958Z,90.00
2018-07-03T00:16:57.648Z,90.00
2018-07-03T00:19:31.442Z,90.00
2018-07-03T00:22:05.189Z,89.60
2018-07-03T00:24:38.841Z,89.60
2018-07-03T00:27:12.897Z,89.60
2018-07-03T00:29:47.796Z,89.60
2018-07-03T00:32:21.534Z,89.30
2018-07-03T00:34:55.152Z,89.10
2018-07-03T00:37:28.836Z,88.80
2018-07-03T00:40:02.443Z,88.60
2018-07-03T00:42:35.687Z,88.80
2018-07-03T00:45:08.886Z,88.90
2018-07-03T00:47:42.160Z,88.80
2018-07-03T00:50:19.014Z,88.60
2018-07-03T00:52:52.413Z,88.40
2018-07-03T00:55:27.144Z,88.00
2018-07-03T00:58:00.651Z,87.50
2018-07-03T01:00:40.014Z,86.80
2018-07-03T01:03:16.404Z,86.00
2018-07-03T01:05:51.729Z,85.10
2018-07-03T01:11:25.060Z,83.80
2018-07-03T01:14:11.730Z,83.00
2018-07-03T01:22:55.781Z,80.70
2018-07-03T01:25:32.188Z,79.40
2018-07-03T01:30:49.563Z,77.00
2018-07-03T01:36:04.768Z,75.60
2018-07-03T01:38:39.195Z,75.00
2018-07-03T01:41:14.454Z,74.60
2018-07-03T01:43:52.860Z,73.40
2018-07-03T01:46:31.189Z,72.90
2018-07-03T01:49:06.184Z,72.20
2018-07-03T01:51:39.607Z,72.60
2018-07-03T01:54:18.465Z,70.90
2018-07-03T01:56:52.362Z,70.60
2018-07-03T01:59:25.458Z,70.20
2018-07-03T02:01:58.605Z,69.40
2018-07-03T02:04:31.630Z,68.60
2018-07-03T02:07:04.691Z,67.50
2018-07-03T02:09:37.891Z,66.00
2018-07-03T02:12:11.900Z,65.30
2018-07-03T02:14:44.991Z,64.60
2018-07-03T02:17:18.013Z,63.70
2018-07-03T02:19:51.126Z,64.30
2018-07-03T02:22:24.274Z,63.90
2018-07-03T02:24:57.326Z,63.40
2018-07-03T02:27:30.454Z,63.40
2018-07-03T02:30:03.591Z,63.50
2018-07-03T02:35:08.568Z,62.70
2018-07-03T02:37:42.800Z,62.60
2018-07-03T02:40:15.974Z,62.40
2018-07-03T02:42:49.168Z,62.70
2018-07-03T02:45:22.522Z,62.50
2018-07-03T02:47:55.632Z,62.00
2018-07-03T02:50:28.793Z,61.40
2018-07-03T02:53:02.035Z,59.90
2018-07-03T02:55:35.201Z,59.40
2018-07-03T02:58:08.405Z,59.30
2018-07-03T03:00:41.615Z,58.80
2018-07-03T03:03:14.693Z,58.60
2018-07-03T03:05:47.831Z,58.20
2018-07-03T03:08:21.120Z,58.40
2018-07-03T03:10:54.317Z,58.40
2018-07-03T03:13:27.386Z,58.00
2018-07-03T03:16:00.654Z,58.60
2018-07-03T03:18:33.743Z,59.10
2018-07-03T03:21:06.800Z,59.70
2018-07-03T03:23:39.973Z,60.30
2018-07-03T03:26:13.055Z,60.40
2018-07-03T03:28:46.505Z,60.70
2018-07-03T03:31:20.437Z,60.90
2018-07-03T03:33:53.460Z,61.20
2018-07-03T03:36:26.569Z,61.20
2018-07-03T03:38:59.548Z,61.80
2018-07-03T03:41:32.798Z,62.10
2018-07-03T03:44:05.963Z,62.30
2018-07-03T03:46:38.970Z,62.00
2018-07-03T03:49:11.974Z,61.80
2018-07-03T03:51:45.112Z,61.80
2018-07-03T03:54:18.194Z,62.10
2018-07-03T03:56:51.227Z,61.10
2018-07-03T03:59:24.403Z,61.80
2018-07-03T04:01:57.470Z,61.50
2018-07-03T04:04:30.510Z,61.40
2018-07-03T04:07:03.665Z,60.90
2018-07-03T04:09:36.821Z,60.60
2018-07-03T04:12:09.875Z,60.20
2018-07-03T04:14:42.974Z,60.40
2018-07-03T04:17:16.030Z,60.60
2018-07-03T04:19:49.115Z,60.00
2018-07-03T04:22:22.284Z,60.00
2018-07-03T04:24:55.577Z,60.10
2018-07-03T04:27:30.033Z,60.00
2018-07-03T04:30:03.140Z,59.50
2018-07-03T04:32:36.796Z,59.30
2018-07-03T04:35:11.630Z,59.50
2018-07-03T04:37:45.049Z,59.10
2018-07-03T04:40:18.409Z,59.00
2018-07-03T04:42:51.609Z,59.10
2018-07-03T04:45:24.821Z,59.20
2018-07-03T04:47:57.832Z,59.70
2018-07-03T04:50:30.881Z,59.70
2018-07-03T04:53:03.966Z,59.20
2018-07-03T04:55:37.016Z,59.10
2018-07-03T05:00:41.519Z,58.30
2018-07-03T05:03:14.628Z,59.20
2018-07-03T05:05:48.436Z,58.80
2018-07-03T05:08:21.494Z,58.20
2018-07-03T05:10:54.579Z,57.00
2018-07-03T05:13:27.550Z,56.30
2018-07-03T05:16:01.134Z,56.60
2018-07-03T05:18:34.217Z,56.70
2018-07-03T05:21:07.388Z,56.40
2018-07-03T05:23:40.379Z,55.90
2018-07-03T05:26:13.904Z,56.20
2018-07-03T05:28:47.068Z,56.50
2018-07-03T05:31:20.223Z,56.40
2018-07-03T05:33:53.481Z,56.10
2018-07-03T05:36:26.529Z,55.70
2018-07-03T05:38:59.795Z,55.00
2018-07-03T05:41:33.413Z,53.80
2018-07-03T05:44:06.566Z,53.60
2018-07-03T05:46:42.050Z,54.30
2018-07-03T05:49:15.210Z,54.70
2018-07-03T05:51:48.336Z,54.50
2018-07-03T05:56:53.677Z,53.50
2018-07-03T05:59:26.680Z,53.50
2018-07-03T06:14:59.008Z,52.90
2018-07-03T06:17:32.204Z,53.00
2018-07-03T06:20:06.156Z,51.20
2018-07-03T06:22:39.865Z,51.20
2018-07-03T06:25:13.656Z,50.70
2018-07-03T06:27:47.064Z,49.50
2018-07-03T06:30:20.713Z,49.60
2018-07-03T06:32:53.886Z,50.20
2018-07-03T06:35:27.146Z,49.80
2018-07-03T06:38:01.492Z,49.30
2018-07-03T06:40:34.854Z,49.50
2018-07-03T06:43:08.686Z,49.40
2018-07-03T06:48:18.864Z,49.20
2018-07-03T06:50:51.943Z,49.50
2018-07-03T06:53:25.130Z,49.70
2018-07-03T06:58:37.194Z,50.10
2018-07-03T07:01:10.555Z,51.10
2018-07-03T07:06:18.286Z,52.70
2018-07-03T07:08:52.047Z,53.40
2018-07-03T07:11:25.170Z,53.50
2018-07-03T07:13:58.369Z,53.70
2018-07-03T07:16:31.629Z,53.90
2018-07-03T07:19:04.726Z,53.30
2018-07-03T07:21:37.742Z,53.20
2018-07-03T07:26:49.094Z,53.20
2018-07-03T07:29:22.413Z,52.00
2018-07-03T07:31:55.443Z,51.00
2018-07-03T07:34:29.618Z,50.90
2018-07-03T07:37:02.697Z,51.20
2018-07-03T07:39:35.876Z,51.30
2018-07-03T07:42:09.092Z,50.90
2018-07-03T07:44:43.891Z,51.00
2018-07-03T07:47:17.617Z,51.60
2018-07-03T07:49:52.011Z,51.60
2018-07-03T07:55:03.433Z,50.90
2018-07-03T07:57:36.546Z,52.10
2018-07-03T08:00:09.982Z,52.30
2018-07-03T08:02:44.502Z,53.20
2018-07-03T08:05:18.546Z,52.70
2018-07-03T08:07:51.751Z,53.60
2018-07-03T08:15:35.165Z,54.10
2018-07-03T08:47:19.548Z,54.10
2018-07-03T08:49:57.248Z,54.50
2018-07-03T09:00:25.925Z,56.40
2018-07-03T09:02:59.618Z,56.60
2018-07-03T09:05:34.951Z,56.60
2018-07-03T09:08:08.096Z,57.00
2018-07-03T09:10:41.260Z,57.20
2018-07-03T09:13:15.084Z,57.30
2018-07-03T09:15:48.480Z,57.10
2018-07-03T09:18:22.759Z,57.20
2018-07-03T09:20:56.798Z,57.40
2018-07-03T09:23:30.026Z,57.40
2018-07-03T09:26:03.899Z,57.60
2018-07-03T09:28:37.517Z,57.70
2018-07-03T09:31:11.566Z,57.90
2018-07-03T09:38:44.861Z,58.10
2018-07-03T09:43:50.847Z,59.20
2018-07-03T09:49:11.223Z,58.20
2018-07-03T09:51:44.338Z,58.40
2018-07-03T09:54:17.893Z,59.20
2018-07-03T09:56:50.984Z,59.60
2018-07-03T09:59:24.258Z,59.40
2018-07-03T10:01:58.226Z,59.50
2018-07-03T10:04:31.468Z,59.60
2018-07-03T10:07:04.660Z,59.90
2018-07-03T10:09:37.770Z,60.10
2018-07-03T10:12:11.173Z,60.20
2018-07-03T10:14:44.320Z,60.60
2018-07-03T10:17:17.519Z,60.60
2018-07-03T10:19:50.831Z,60.90
2018-07-03T10:22:24.056Z,60.90
2018-07-03T10:24:57.340Z,61.00
2018-07-03T10:27:30.554Z,61.30
2018-07-03T10:30:03.621Z,61.30
2018-07-03T10:32:36.911Z,61.40
2018-07-03T10:35:10.049Z,61.90
2018-07-03T10:37:43.272Z,62.40
2018-07-03T10:40:16.443Z,62.70
2018-07-03T10:42:49.599Z,63.20
2018-07-03T10:47:54.827Z,63.80
2018-07-03T10:53:15.981Z,64.40
2018-07-03T10:55:49.105Z,64.80
2018-07-03T10:58:22.246Z,65.10
2018-07-03T11:00:55.376Z,65.40
2018-07-03T11:03:28.566Z,65.60
2018-07-03T11:06:01.837Z,66.00
2018-07-03T11:08:35.100Z,66.20
2018-07-03T11:11:08.378Z,66.50
2018-07-03T11:13:41.552Z,66.70
2018-07-03T11:16:15.528Z,67.10
2018-07-03T11:18:49.258Z,67.30
2018-07-03T11:21:22.588Z,67.50
2018-07-03T11:23:55.927Z,67.90
2018-07-03T11:26:29.089Z,68.10
2018-07-03T11:29:02.772Z,68.20
2018-07-03T11:31:35.980Z,68.50
2018-07-03T11:34:09.306Z,68.60
2018-07-03T11:36:42.428Z,68.50
2018-07-03T11:39:15.617Z,69.10
2018-07-03T11:41:48.662Z,69.30
2018-07-03T11:44:21.750Z,69.70
2018-07-03T11:46:54.782Z,69.80
2018-07-03T11:49:28.278Z,70.00
2018-07-03T11:52:01.421Z,70.20
2018-07-03T11:57:06.372Z,70.80
2018-07-03T12:02:11.829Z,71.00
2018-07-03T12:04:45.088Z,71.60
2018-07-03T12:07:18.252Z,71.60
2018-07-03T12:09:51.385Z,71.60
2018-07-03T12:12:24.870Z,72.00
2018-07-03T12:14:58.070Z,72.10
2018-07-03T12:17:31.180Z,72.10
2018-07-03T12:20:04.350Z,72.30
2018-07-03T12:22:37.704Z,72.50
2018-07-03T12:25:11.082Z,72.10
2018-07-03T12:27:44.230Z,72.20
2018-07-03T12:30:18.270Z,72.80
2018-07-03T12:32:51.878Z,72.70
2018-07-03T12:35:25.550Z,72.90
2018-07-03T12:37:58.594Z,73.00
2018-07-03T12:40:31.771Z,73.00
2018-07-03T12:43:04.866Z,73.00
2018-07-03T12:45:37.967Z,73.10
2018-07-03T12:48:11.228Z,73.20
2018-07-03T12:50:44.864Z,73.10
2018-07-03T12:53:18.035Z,72.80
2018-07-03T12:55:51.336Z,72.90
2018-07-03T12:58:24.629Z,73.20
2018-07-03T13:00:57.820Z,73.40
2018-07-03T13:03:31.485Z,73.40
2018-07-03T13:08:37.225Z,73.60
2018-07-03T13:11:10.611Z,73.50
2018-07-03T13:13:44.344Z,73.30
2018-07-03T13:16:17.672Z,73.40
2018-07-03T13:18:50.898Z,73.40
2018-07-03T13:21:24.117Z,73.30
2018-07-03T13:23:57.979Z,73.10
2018-07-03T13:26:31.247Z,73.20
2018-07-03T13:29:04.425Z,73.30
2018-07-03T13:31:37.689Z,73.40
2018-07-03T13:34:11.010Z,73.60
2018-07-03T13:36:44.252Z,73.70
2018-07-03T13:39:17.625Z,73.70
2018-07-03T13:41:51.427Z,73.70
2018-07-03T13:44:25.229Z,73.70
2018-07-03T13:46:58.428Z,73.80
2018-07-03T13:49:31.576Z,74.00
2018-07-03T13:52:05.408Z,73.60
2018-07-03T13:54:38.486Z,74.30
2018-07-03T13:57:11.665Z,74.30
2018-07-03T13:59:44.785Z,74.50
2018-07-03T14:02:18.148Z,74.60
2018-07-03T14:04:51.258Z,75.00
2018-07-03T14:07:25.071Z,74.90
2018-07-03T14:09:58.594Z,74.80
2018-07-03T14:12:31.836Z,75.40
2018-07-03T14:15:04.946Z,75.50
2018-07-03T14:17:38.152Z,75.60
2018-07-03T14:20:12.158Z,75.80
2018-07-03T14:22:45.474Z,75.80
2018-07-03T14:25:18.501Z,75.60
2018-07-03T14:27:51.579Z,76.10
2018-07-03T14:30:24.843Z,75.70
2018-07-03T14:35:35.388Z,76.50
2018-07-03T14:38:10.088Z,76.50
2018-07-03T14:40:44.109Z,76.00
2018-07-03T14:43:17.998Z,76.60
2018-07-03T14:45:51.837Z,76.70
2018-07-03T14:48:25.048Z,76.80
2018-07-03T14:51:03.593Z,76.90
2018-07-03T14:53:36.981Z,77.00
2018-07-03T14:56:10.010Z,77.20
2018-07-03T14:58:43.346Z,77.30
2018-07-03T15:01:16.552Z,77.30
2018-07-03T15:03:49.700Z,77.30
2018-07-03T15:06:22.809Z,76.90
2018-07-03T15:08:55.858Z,77.60
2018-07-03T15:11:30.047Z,77.70
2018-07-03T15:14:12.162Z,77.30
2018-07-03T15:16:46.626Z,78.00
2018-07-03T15:22:16.556Z,78.10
2018-07-03T15:27:43.609Z,78.20
2018-07-03T15:33:25.454Z,78.40
2018-07-03T15:48:56.437Z,79.00
2018-07-03T16:02:23.094Z,79.40
2018-07-03T16:05:08.958Z,79.40
2018-07-03T16:08:04.594Z,79.50
2018-07-03T16:10:54.681Z,79.90
2018-07-03T16:13:45.670Z,79.80
2018-07-03T16:16:27.347Z,79.80
2018-07-03T16:19:17.777Z,79.90
2018-07-03T16:22:03.988Z,80.00
2018-07-03T16:30:30.678Z,80.20
2018-07-03T16:33:06.363Z,80.20
2018-07-03T16:35:52.194Z,80.20
2018-07-03T16:38:26.488Z,80.00
2018-07-03T16:41:06.583Z,79.90
2018-07-03T16:43:50.201Z,79.70
2018-07-03T16:46:26.054Z,79.70
2018-07-03T16:51:49.480Z,79.30
2018-07-03T16:57:29.359Z,77.30
2018-07-03T17:03:17.057Z,75.30
2018-07-03T17:05:57.648Z,75.10
2018-07-03T17:11:59.906Z,74.80
2018-07-03T17:17:38.989Z,73.40
2018-07-03T17:20:12.191Z,73.60
2018-07-03T17:23:04.174Z,73.20
2018-07-03T17:25:59.117Z,73.30
2018-07-03T17:28:46.050Z,72.90
2018-07-03T17:31:42.402Z,72.60
2018-07-03T17:34:33.121Z,72.60
2018-07-03T17:40:18.172Z,72.30
2018-07-03T17:43:04.160Z,72.70
2018-07-03T17:46:11.079Z,72.30
2018-07-03T17:48:54.318Z,72.30
2018-07-03T17:57:15.766Z,72.60
2018-07-03T18:00:09.537Z,72.00
2018-07-03T18:10:58.030Z,71.90
2018-07-03T18:16:13.342Z,71.00
2018-07-03T18:18:47.477Z,70.40
2018-07-03T18:35:52.084Z,70.10
2018-07-03T18:38:48.622Z,70.40
2018-07-03T18:41:44.591Z,70.90
2018-07-03T18:44:28.358Z,70.90
2018-07-03T18:47:29.582Z,70.90
2018-07-03T18:50:20.878Z,70.30
2018-07-03T20:36:07.737Z,70.40
2018-07-03T20:44:05.409Z,71.60
2018-07-03T20:52:20.956Z,71.70
2018-07-03T20:55:10.091Z,71.70
2018-07-03T20:57:58.926Z,72.10
2018-07-03T21:00:50.995Z,72.30
2018-07-03T21:03:31.169Z,72.30
2018-07-03T21:06:31.708Z,72.30
2018-07-03T21:09:46.081Z,72.40
2018-07-03T21:12:26.106Z,72.70
2018-07-03T21:15:06.901Z,72.70
2018-07-03T21:17:58.591Z,72.70
2018-07-03T21:20:53.583Z,72.80
2018-07-03T21:26:45.611Z,73.10
2018-07-03T21:32:51.527Z,73.40
2018-07-03T21:39:19.449Z,73.80
2018-07-03T21:42:17.163Z,74.20
2018-07-03T21:45:03.794Z,74.50
2018-07-03T21:47:47.661Z,74.70
2018-07-03T22:05:05.778Z,75.70
2018-07-03T22:07:51.600Z,76.20
2018-07-03T22:13:41.404Z,77.50
2018-07-03T22:16:46.959Z,77.80
2018-07-03T22:41:40.279Z,80.70
2018-07-03T22:47:32.088Z,81.40
2018-07-03T22:50:27.254Z,81.70
2018-07-03T22:53:15.354Z,81.90
2018-07-03T22:55:54.040Z,82.00
2018-07-03T22:59:00.931Z,82.20
2018-07-03T23:06:40.187Z,82.30
2018-07-03T23:09:16.249Z,82.50
2018-07-03T23:11:55.131Z,82.60
2018-07-03T23:14:37.840Z,82.80
2018-07-03T23:17:12.310Z,82.80
2018-07-03T23:22:40.583Z,82.70
2018-07-03T23:28:06.577Z,83.00
2018-07-03T23:30:52.378Z,82.30
2018-07-03T23:33:44.579Z,82.20
2018-07-03T23:36:24.921Z,82.20
2018-07-03T23:39:11.116Z,82.00
2018-07-03T23:41:58.372Z,81.90
2018-07-03T23:44:45.863Z,81.60
2018-07-03T23:47:32.844Z,81.30
2018-07-03T23:50:17.953Z,80.70
2018-07-03T23:53:01.013Z,79.90
2018-07-03T23:55:44.301Z,79.40
2018-07-03T23:58:26.389Z,78.60
